Terminal Aerodrome Forecast
Issued by NWS

Home | Current Version | Previous Version | Text Only | Print | Product List | Glossary On
Versions: 1 2 3 4 5 6 7 8 9 10 11 12 13 14 15 16
000
FTUS45 KABQ 241728
TAFFMN
TAF
KFMN 241728Z 2418/2518 27008KT P6SM VCSH SCT030 BKN050
     FM242000 28012G18KT P6SM SCT040 SCT060
     FM250100 VRB04KT P6SM SCT040 SCT060
     FM250700 08005KT P6SM SCT060=

USA.gov is the U.S. government's official web portal to all federal, state and local government web resources and services.